Terminal Aerodrome Forecast
Issued by NWS

Home | Current Version | Previous Version | Text Only | Print | Product List | Glossary On
Versions: 1 2 3 4 5 6 7 8 9 10 11 12 13 14 15
000
FTUS41 KCAR 040628 AAA
TAFPQI
TAF AMD
KPQI 040628Z 0406/0506 17013KT 3SM -SN OVC015
     FM040800 19011KT P6SM OVC015
     FM041300 21009KT P6SM BKN025
     FM041600 25011G22KT P6SM BKN040
      AMD LTD TO CLD VIS AND WIND=

USA.gov is the U.S. government's official web portal to all federal, state and local government web resources and services.